sensor_id;sensor_type;location;lat;lon;timestamp;temperature;humidity
364;DHT22;173;48.718;9.274;2022-07-23T00:00:30;25.40;67.20
364;DHT22;173;48.718;9.274;2022-07-23T00:03:02;25.20;67.50
364;DHT22;173;48.718;9.274;2022-07-23T00:05:34;25.20;67.10
364;DHT22;173;48.718;9.274;2022-07-23T00:08:07;25.20;66.10
364;DHT22;173;48.718;9.274;2022-07-23T00:10:40;25.20;65.70
364;DHT22;173;48.718;9.274;2022-07-23T00:13:12;25.20;65.70
364;DHT22;173;48.718;9.274;2022-07-23T00:15:44;25.20;65.60
364;DHT22;173;48.718;9.274;2022-07-23T00:18:17;25.20;65.30
364;DHT22;173;48.718;9.274;2022-07-23T00:20:49;25.20;65.30
364;DHT22;173;48.718;9.274;2022-07-23T00:23:21;25.20;64.20
364;DHT22;173;48.718;9.274;2022-07-23T00:25:54;25.30;62.10
364;DHT22;173;48.718;9.274;2022-07-23T00:28:26;25.40;61.80
364;DHT22;173;48.718;9.274;2022-07-23T00:30:58;25.60;61.20
364;DHT22;173;48.718;9.274;2022-07-23T00:36:01;25.60;61.10
364;DHT22;173;48.718;9.274;2022-07-23T00:38:33;25.60;61.00
364;DHT22;173;48.718;9.274;2022-07-23T00:41:05;25.40;61.90
364;DHT22;173;48.718;9.274;2022-07-23T00:43:37;25.30;62.00
364;DHT22;173;48.718;9.274;2022-07-23T00:46:09;25.20;62.10
364;DHT22;173;48.718;9.274;2022-07-23T00:48:41;25.20;62.10
364;DHT22;173;48.718;9.274;2022-07-23T00:51:20;25.20;62.90
364;DHT22;173;48.718;9.274;2022-07-23T00:53:47;25.20;63.00
364;DHT22;173;48.718;9.274;2022-07-23T01:01:22;25.20;62.00
364;DHT22;173;48.718;9.274;2022-07-23T01:03:54;25.10;62.40
364;DHT22;173;48.718;9.274;2022-07-23T01:06:26;25.10;62.50
364;DHT22;173;48.718;9.274;2022-07-23T01:08:58;25.20;62.50
364;DHT22;173;48.718;9.274;2022-07-23T01:11:32;25.10;62.60
364;DHT22;173;48.718;9.274;2022-07-23T01:14:12;24.90;63.40
364;DHT22;173;48.718;9.274;2022-07-23T01:16:47;24.80;63.70
364;DHT22;173;48.718;9.274;2022-07-23T01:19:20;24.80;64.00
364;DHT22;173;48.718;9.274;2022-07-23T01:21:53;24.70;64.10
364;DHT22;173;48.718;9.274;2022-07-23T01:27:05;24.70;64.40
364;DHT22;173;48.718;9.274;2022-07-23T01:29:38;24.70;64.70
364;DHT22;173;48.718;9.274;2022-07-23T01:32:10;24.60;65.50
364;DHT22;173;48.718;9.274;2022-07-23T01:34:42;24.60;65.50
364;DHT22;173;48.718;9.274;2022-07-23T01:37:14;24.50;66.10
364;DHT22;173;48.718;9.274;2022-07-23T01:39:46;24.40;66.40
364;DHT22;173;48.718;9.274;2022-07-23T01:42:18;24.50;66.90
364;DHT22;173;48.718;9.274;2022-07-23T01:44:51;24.50;66.90
364;DHT22;173;48.718;9.274;2022-07-23T01:47:23;24.60;66.60
364;DHT22;173;48.718;9.274;2022-07-23T01:54:57;24.70;67.20
364;DHT22;173;48.718;9.274;2022-07-23T01:57:29;24.50;67.70
364;DHT22;173;48.718;9.274;2022-07-23T02:00:01;24.40;68.00
364;DHT22;173;48.718;9.274;2022-07-23T02:02:34;24.30;68.60
364;DHT22;173;48.718;9.274;2022-07-23T02:05:07;24.20;69.00
364;DHT22;173;48.718;9.274;2022-07-23T02:07:39;24.20;69.30
364;DHT22;173;48.718;9.274;2022-07-23T02:10:11;24.20;69.50
364;DHT22;173;48.718;9.274;2022-07-23T02:12:44;24.10;69.60
364;DHT22;173;48.718;9.274;2022-07-23T02:15:16;24.10;69.90
364;DHT22;173;48.718;9.274;2022-07-23T02:17:46;24.10;70.20
364;DHT22;173;48.718;9.274;2022-07-23T02:20:18;24.10;70.50
364;DHT22;173;48.718;9.274;2022-07-23T02:22:50;23.80;71.40
364;DHT22;173;48.718;9.274;2022-07-23T02:25:23;23.70;71.70
364;DHT22;173;48.718;9.274;2022-07-23T02:27:54;23.90;71.50
364;DHT22;173;48.718;9.274;2022-07-23T02:30:27;24.00;71.20
364;DHT22;173;48.718;9.274;2022-07-23T02:32:59;23.90;71.20
364;DHT22;173;48.718;9.274;2022-07-23T02:35:31;23.80;72.00
364;DHT22;173;48.718;9.274;2022-07-23T02:38:03;23.90;71.90
364;DHT22;173;48.718;9.274;2022-07-23T02:40:33;23.90;72.10
364;DHT22;173;48.718;9.274;2022-07-23T02:43:05;23.90;72.20
364;DHT22;173;48.718;9.274;2022-07-23T02:45:37;24.00;72.00
364;DHT22;173;48.718;9.274;2022-07-23T02:48:09;24.00;71.80
364;DHT22;173;48.718;9.274;2022-07-23T02:50:41;23.90;71.90
364;DHT22;173;48.718;9.274;2022-07-23T02:53:13;23.90;72.10
364;DHT22;173;48.718;9.274;2022-07-23T02:55:46;23.90;72.80
364;DHT22;173;48.718;9.274;2022-07-23T02:58:18;23.90;72.80
364;DHT22;173;48.718;9.274;2022-07-23T03:03:04;24.00;72.20
364;DHT22;173;48.718;9.274;2022-07-23T03:05:36;24.00;71.80
364;DHT22;173;48.718;9.274;2022-07-23T03:08:08;24.00;71.60
364;DHT22;173;48.718;9.274;2022-07-23T03:10:40;24.00;72.00
364;DHT22;173;48.718;9.274;2022-07-23T03:13:12;23.90;72.30
364;DHT22;173;48.718;9.274;2022-07-23T03:15:45;23.90;72.00
364;DHT22;173;48.718;9.274;2022-07-23T03:18:17;23.80;72.20
364;DHT22;173;48.718;9.274;2022-07-23T03:20:49;23.80;72.40
364;DHT22;173;48.718;9.274;2022-07-23T03:23:21;23.70;73.10
364;DHT22;173;48.718;9.274;2022-07-23T03:25:53;23.50;73.60
364;DHT22;173;48.718;9.274;2022-07-23T03:28:25;23.50;74.00
364;DHT22;173;48.718;9.274;2022-07-23T03:30:58;23.50;74.60
364;DHT22;173;48.718;9.274;2022-07-23T03:38:32;23.70;73.60
364;DHT22;173;48.718;9.274;2022-07-23T03:41:03;23.60;73.70
364;DHT22;173;48.718;9.274;2022-07-23T03:43:35;23.40;74.00
364;DHT22;173;48.718;9.274;2022-07-23T03:46:07;23.20;74.90
364;DHT22;173;48.718;9.274;2022-07-23T03:48:39;23.10;75.30
364;DHT22;173;48.718;9.274;2022-07-23T03:51:11;23.10;75.70
364;DHT22;173;48.718;9.274;2022-07-23T03:53:44;23.10;75.80
364;DHT22;173;48.718;9.274;2022-07-23T03:58:47;23.20;76.60
364;DHT22;173;48.718;9.274;2022-07-23T04:01:19;23.10;76.30
364;DHT22;173;48.718;9.274;2022-07-23T04:03:52;23.10;76.70
364;DHT22;173;48.718;9.274;2022-07-23T04:06:24;23.10;76.40
364;DHT22;173;48.718;9.274;2022-07-23T04:08:56;23.10;75.50
364;DHT22;173;48.718;9.274;2022-07-23T04:11:28;23.10;75.50
364;DHT22;173;48.718;9.274;2022-07-23T04:14:00;23.00;75.70
364;DHT22;173;48.718;9.274;2022-07-23T04:16:33;23.00;76.80
364;DHT22;173;48.718;9.274;2022-07-23T04:19:05;22.90;77.00
364;DHT22;173;48.718;9.274;2022-07-23T04:21:37;22.80;77.50
364;DHT22;173;48.718;9.274;2022-07-23T04:24:09;22.80;77.60
364;DHT22;173;48.718;9.274;2022-07-23T04:26:41;22.80;77.80
364;DHT22;173;48.718;9.274;2022-07-23T04:29:13;22.90;77.10
364;DHT22;173;48.718;9.274;2022-07-23T04:31:45;23.10;76.70
364;DHT22;173;48.718;9.274;2022-07-23T04:37:17;23.40;75.60
364;DHT22;173;48.718;9.274;2022-07-23T04:39:49;23.30;75.50
364;DHT22;173;48.718;9.274;2022-07-23T04:42:21;23.20;76.40
364;DHT22;173;48.718;9.274;2022-07-23T04:44:53;23.20;76.50
364;DHT22;173;48.718;9.274;2022-07-23T04:47:25;23.10;76.70
364;DHT22;173;48.718;9.274;2022-07-23T04:49:57;23.10;77.00
364;DHT22;173;48.718;9.274;2022-07-23T04:52:29;23.10;77.40
364;DHT22;173;48.718;9.274;2022-07-23T04:55:01;23.10;77.60
364;DHT22;173;48.718;9.274;2022-07-23T04:57:34;23.10;77.60
364;DHT22;173;48.718;9.274;2022-07-23T05:02:38;23.00;78.30
364;DHT22;173;48.718;9.274;2022-07-23T05:05:10;23.20;78.30
364;DHT22;173;48.718;9.274;2022-07-23T05:07:42;23.20;78.30
364;DHT22;173;48.718;9.274;2022-07-23T05:10:14;23.40;78.30
364;DHT22;173;48.718;9.274;2022-07-23T05:12:47;23.40;78.10
364;DHT22;173;48.718;9.274;2022-07-23T05:15:19;23.50;78.10
364;DHT22;173;48.718;9.274;2022-07-23T05:22:53;23.60;78.20
364;DHT22;173;48.718;9.274;2022-07-23T05:25:25;23.60;78.50
364;DHT22;173;48.718;9.274;2022-07-23T05:27:57;23.70;78.00
364;DHT22;173;48.718;9.274;2022-07-23T05:30:29;23.80;78.10
364;DHT22;173;48.718;9.274;2022-07-23T05:33:01;23.80;78.00
364;DHT22;173;48.718;9.274;2022-07-23T05:35:35;23.70;78.40
364;DHT22;173;48.718;9.274;2022-07-23T05:38:07;23.70;78.90
364;DHT22;173;48.718;9.274;2022-07-23T05:40:39;23.70;79.00
364;DHT22;173;48.718;9.274;2022-07-23T05:43:11;23.80;78.70
364;DHT22;173;48.718;9.274;2022-07-23T05:45:43;23.70;78.80
364;DHT22;173;48.718;9.274;2022-07-23T05:48:15;23.80;79.00
364;DHT22;173;48.718;9.274;2022-07-23T05:50:48;23.90;78.60
364;DHT22;173;48.718;9.274;2022-07-23T05:53:20;24.00;78.40
364;DHT22;173;48.718;9.274;2022-07-23T05:55:52;24.20;78.30
364;DHT22;173;48.718;9.274;2022-07-23T06:02:47;24.20;77.80
364;DHT22;173;48.718;9.274;2022-07-23T06:05:20;24.10;78.10
364;DHT22;173;48.718;9.274;2022-07-23T06:07:52;24.20;78.80
364;DHT22;173;48.718;9.274;2022-07-23T06:10:24;24.10;78.10
364;DHT22;173;48.718;9.274;2022-07-23T06:12:56;24.00;79.20
364;DHT22;173;48.718;9.274;2022-07-23T06:15:28;24.00;79.60
364;DHT22;173;48.718;9.274;2022-07-23T06:20:31;24.00;79.50
364;DHT22;173;48.718;9.274;2022-07-23T06:23:03;24.00;79.40
364;DHT22;173;48.718;9.274;2022-07-23T06:25:35;24.00;79.80
364;DHT22;173;48.718;9.274;2022-07-23T06:28:08;24.10;79.80
364;DHT22;173;48.718;9.274;2022-07-23T06:30:40;24.20;78.50
364;DHT22;173;48.718;9.274;2022-07-23T06:33:12;24.50;78.20
364;DHT22;173;48.718;9.274;2022-07-23T06:35:44;24.90;77.40
364;DHT22;173;48.718;9.274;2022-07-23T06:43:18;25.80;73.40
364;DHT22;173;48.718;9.274;2022-07-23T06:45:50;26.00;74.30
364;DHT22;173;48.718;9.274;2022-07-23T06:48:22;26.10;73.30
364;DHT22;173;48.718;9.274;2022-07-23T06:50:54;26.10;74.00
364;DHT22;173;48.718;9.274;2022-07-23T06:53:26;26.30;73.30
364;DHT22;173;48.718;9.274;2022-07-23T06:55:56;26.30;73.60
364;DHT22;173;48.718;9.274;2022-07-23T06:58:28;26.10;72.30
364;DHT22;173;48.718;9.274;2022-07-23T07:01:00;26.20;72.00
364;DHT22;173;48.718;9.274;2022-07-23T07:03:32;26.20;71.80
364;DHT22;173;48.718;9.274;2022-07-23T07:06:04;26.30;72.60
364;DHT22;173;48.718;9.274;2022-07-23T07:08:36;26.40;72.40
364;DHT22;173;48.718;9.274;2022-07-23T07:11:11;26.50;72.00
364;DHT22;173;48.718;9.274;2022-07-23T07:13:46;26.40;70.70
364;DHT22;173;48.718;9.274;2022-07-23T07:16:20;26.20;70.20
364;DHT22;173;48.718;9.274;2022-07-23T07:18:52;26.10;70.10
364;DHT22;173;48.718;9.274;2022-07-23T07:21:24;26.10;68.50
364;DHT22;173;48.718;9.274;2022-07-23T07:23:56;26.00;68.90
364;DHT22;173;48.718;9.274;2022-07-23T07:26:28;26.00;68.50
364;DHT22;173;48.718;9.274;2022-07-23T07:29:00;25.90;68.90
364;DHT22;173;48.718;9.274;2022-07-23T07:31:32;25.90;68.70
364;DHT22;173;48.718;9.274;2022-07-23T07:34:04;25.80;68.50
364;DHT22;173;48.718;9.274;2022-07-23T07:36:36;25.80;68.00
364;DHT22;173;48.718;9.274;2022-07-23T07:39:08;25.90;67.20
364;DHT22;173;48.718;9.274;2022-07-23T07:41:42;26.00;67.20
364;DHT22;173;48.718;9.274;2022-07-23T07:44:14;26.00;67.30
364;DHT22;173;48.718;9.274;2022-07-23T07:46:46;26.20;68.00
364;DHT22;173;48.718;9.274;2022-07-23T07:49:18;26.30;66.60
364;DHT22;173;48.718;9.274;2022-07-23T07:51:51;26.80;66.60
364;DHT22;173;48.718;9.274;2022-07-23T07:54:23;26.90;64.60
364;DHT22;173;48.718;9.274;2022-07-23T07:56:55;26.70;65.80
364;DHT22;173;48.718;9.274;2022-07-23T07:59:27;26.90;66.10
364;DHT22;173;48.718;9.274;2022-07-23T08:01:59;27.30;66.20
364;DHT22;173;48.718;9.274;2022-07-23T08:04:34;27.50;64.50
364;DHT22;173;48.718;9.274;2022-07-23T08:07:07;27.50;63.80
364;DHT22;173;48.718;9.274;2022-07-23T08:09:42;27.40;64.60
364;DHT22;173;48.718;9.274;2022-07-23T08:12:14;27.30;64.80
364;DHT22;173;48.718;9.274;2022-07-23T08:14:46;27.30;65.00
364;DHT22;173;48.718;9.274;2022-07-23T08:17:18;27.30;63.90
364;DHT22;173;48.718;9.274;2022-07-23T08:22:20;28.20;63.30
364;DHT22;173;48.718;9.274;2022-07-23T08:24:52;28.20;63.30
364;DHT22;173;48.718;9.274;2022-07-23T08:27:25;28.40;63.50
364;DHT22;173;48.718;9.274;2022-07-23T08:29:57;28.50;62.80
364;DHT22;173;48.718;9.274;2022-07-23T08:32:29;28.20;61.50
364;DHT22;173;48.718;9.274;2022-07-23T08:35:01;28.00;63.00
364;DHT22;173;48.718;9.274;2022-07-23T08:37:33;27.70;63.00
364;DHT22;173;48.718;9.274;2022-07-23T08:40:06;27.70;62.60
364;DHT22;173;48.718;9.274;2022-07-23T08:42:39;27.90;63.10
364;DHT22;173;48.718;9.274;2022-07-23T08:45:13;28.10;61.10
364;DHT22;173;48.718;9.274;2022-07-23T08:47:55;28.20;62.30
364;DHT22;173;48.718;9.274;2022-07-23T08:50:27;28.60;61.90
364;DHT22;173;48.718;9.274;2022-07-23T08:53:00;28.90;60.00
364;DHT22;173;48.718;9.274;2022-07-23T08:55:32;29.00;59.20
364;DHT22;173;48.718;9.274;2022-07-23T08:58:05;29.00;59.30
364;DHT22;173;48.718;9.274;2022-07-23T09:05:44;28.70;59.50
364;DHT22;173;48.718;9.274;2022-07-23T09:08:21;28.60;59.80
364;DHT22;173;48.718;9.274;2022-07-23T09:10:58;28.40;59.70
364;DHT22;173;48.718;9.274;2022-07-23T09:13:37;28.50;60.20
364;DHT22;173;48.718;9.274;2022-07-23T09:16:16;28.70;59.50
364;DHT22;173;48.718;9.274;2022-07-23T09:18:55;28.80;57.00
364;DHT22;173;48.718;9.274;2022-07-23T09:24:16;28.90;59.90
364;DHT22;173;48.718;9.274;2022-07-23T09:26:49;29.30;59.00
364;DHT22;173;48.718;9.274;2022-07-23T09:29:24;29.10;57.80
364;DHT22;173;48.718;9.274;2022-07-23T09:31:59;28.80;59.10
364;DHT22;173;48.718;9.274;2022-07-23T09:34:35;29.20;59.20
364;DHT22;173;48.718;9.274;2022-07-23T09:37:13;29.40;58.60
364;DHT22;173;48.718;9.274;2022-07-23T09:39:47;29.70;57.00
364;DHT22;173;48.718;9.274;2022-07-23T09:44:56;30.00;56.40
364;DHT22;173;48.718;9.274;2022-07-23T09:47:31;30.20;54.50
364;DHT22;173;48.718;9.274;2022-07-23T09:50:08;30.00;54.00
364;DHT22;173;48.718;9.274;2022-07-23T09:52:46;30.30;55.60
364;DHT22;173;48.718;9.274;2022-07-23T09:55:19;30.90;55.60
364;DHT22;173;48.718;9.274;2022-07-23T09:57:54;31.40;52.40
364;DHT22;173;48.718;9.274;2022-07-23T10:00:27;31.70;50.80
364;DHT22;173;48.718;9.274;2022-07-23T10:03:01;31.10;50.80
364;DHT22;173;48.718;9.274;2022-07-23T10:08:04;31.20;51.80
364;DHT22;173;48.718;9.274;2022-07-23T10:10:40;31.50;52.10
364;DHT22;173;48.718;9.274;2022-07-23T10:13:13;31.10;50.90
364;DHT22;173;48.718;9.274;2022-07-23T10:16:04;31.50;51.70
364;DHT22;173;48.718;9.274;2022-07-23T10:18:38;31.60;53.50
364;DHT22;173;48.718;9.274;2022-07-23T10:29:40;32.40;49.50
364;DHT22;173;48.718;9.274;2022-07-23T10:32:26;32.60;50.10
364;DHT22;173;48.718;9.274;2022-07-23T10:38:20;32.50;49.50
364;DHT22;173;48.718;9.274;2022-07-23T10:40:32;32.30;49.30
364;DHT22;173;48.718;9.274;2022-07-23T10:43:05;32.60;50.30
364;DHT22;173;48.718;9.274;2022-07-23T10:45:41;33.00;48.90
364;DHT22;173;48.718;9.274;2022-07-23T10:48:18;33.30;48.40
364;DHT22;173;48.718;9.274;2022-07-23T10:51:10;33.80;46.50
364;DHT22;173;48.718;9.274;2022-07-23T10:53:55;34.40;45.60
364;DHT22;173;48.718;9.274;2022-07-23T11:10:51;33.90;45.30
364;DHT22;173;48.718;9.274;2022-07-23T11:13:49;33.70;47.10
364;DHT22;173;48.718;9.274;2022-07-23T11:16:23;33.50;48.40
364;DHT22;173;48.718;9.274;2022-07-23T11:18:58;33.80;47.10
364;DHT22;173;48.718;9.274;2022-07-23T11:26:48;34.40;44.70
364;DHT22;173;48.718;9.274;2022-07-23T11:32:08;34.80;44.30
364;DHT22;173;48.718;9.274;2022-07-23T11:34:51;34.60;44.10
364;DHT22;173;48.718;9.274;2022-07-23T11:37:35;34.00;44.00
364;DHT22;173;48.718;9.274;2022-07-23T11:40:16;33.20;45.60
364;DHT22;173;48.718;9.274;2022-07-23T11:42:58;32.60;47.80
364;DHT22;173;48.718;9.274;2022-07-23T11:45:37;32.60;47.80
364;DHT22;173;48.718;9.274;2022-07-23T11:48:18;32.50;48.10
364;DHT22;173;48.718;9.274;2022-07-23T11:50:54;32.70;47.10
364;DHT22;173;48.718;9.274;2022-07-23T11:56:11;33.40;45.10
364;DHT22;173;48.718;9.274;2022-07-23T11:58:54;33.40;44.80
364;DHT22;173;48.718;9.274;2022-07-23T12:01:25;34.10;45.80
364;DHT22;173;48.718;9.274;2022-07-23T12:03:57;34.30;44.50
364;DHT22;173;48.718;9.274;2022-07-23T12:11:31;34.50;45.60
364;DHT22;173;48.718;9.274;2022-07-23T12:14:03;34.30;45.10
364;DHT22;173;48.718;9.274;2022-07-23T12:16:35;33.50;45.30
364;DHT22;173;48.718;9.274;2022-07-23T12:19:07;32.90;48.40
364;DHT22;173;48.718;9.274;2022-07-23T12:21:41;33.00;48.80
364;DHT22;173;48.718;9.274;2022-07-23T12:27:22;34.80;43.90
364;DHT22;173;48.718;9.274;2022-07-23T12:31:59;34.30;44.90
364;DHT22;173;48.718;9.274;2022-07-23T12:34:32;34.00;44.60
364;DHT22;173;48.718;9.274;2022-07-23T12:37:04;33.30;47.10
364;DHT22;173;48.718;9.274;2022-07-23T12:39:37;33.00;47.30
364;DHT22;173;48.718;9.274;2022-07-23T12:42:11;32.80;47.60
364;DHT22;173;48.718;9.274;2022-07-23T12:45:09;33.30;47.50
364;DHT22;173;48.718;9.274;2022-07-23T12:47:57;34.40;46.00
364;DHT22;173;48.718;9.274;2022-07-23T12:50:43;35.70;43.60
364;DHT22;173;48.718;9.274;2022-07-23T12:53:29;36.50;42.50
364;DHT22;173;48.718;9.274;2022-07-23T12:56:15;36.60;41.20
364;DHT22;173;48.718;9.274;2022-07-23T12:59:11;36.10;42.40
364;DHT22;173;48.718;9.274;2022-07-23T13:01:42;35.80;41.70
364;DHT22;173;48.718;9.274;2022-07-23T13:04:18;35.30;43.10
364;DHT22;173;48.718;9.274;2022-07-23T13:06:54;35.40;43.70
364;DHT22;173;48.718;9.274;2022-07-23T13:09:31;35.50;42.90
364;DHT22;173;48.718;9.274;2022-07-23T13:12:04;34.80;43.60
364;DHT22;173;48.718;9.274;2022-07-23T13:14:36;34.20;44.00
364;DHT22;173;48.718;9.274;2022-07-23T13:17:08;33.30;44.30
364;DHT22;173;48.718;9.274;2022-07-23T13:19:41;32.60;46.90
364;DHT22;173;48.718;9.274;2022-07-23T13:22:13;32.20;47.70
364;DHT22;173;48.718;9.274;2022-07-23T13:24:45;32.30;48.00
364;DHT22;173;48.718;9.274;2022-07-23T13:27:17;33.00;47.40
364;DHT22;173;48.718;9.274;2022-07-23T13:29:49;34.20;45.90
364;DHT22;173;48.718;9.274;2022-07-23T13:32:21;35.10;44.60
364;DHT22;173;48.718;9.274;2022-07-23T13:34:53;36.10;43.00
364;DHT22;173;48.718;9.274;2022-07-23T13:37:25;36.70;41.40
364;DHT22;173;48.718;9.274;2022-07-23T13:39:57;36.80;41.40
364;DHT22;173;48.718;9.274;2022-07-23T13:42:29;37.70;40.70
364;DHT22;173;48.718;9.274;2022-07-23T13:47:25;38.10;39.70
364;DHT22;173;48.718;9.274;2022-07-23T13:49:57;38.50;39.30
364;DHT22;173;48.718;9.274;2022-07-23T13:52:29;37.70;38.10
364;DHT22;173;48.718;9.274;2022-07-23T13:55:05;37.70;38.10
364;DHT22;173;48.718;9.274;2022-07-23T13:57:38;37.50;37.20
364;DHT22;173;48.718;9.274;2022-07-23T14:00:11;37.30;37.70
364;DHT22;173;48.718;9.274;2022-07-23T14:02:44;37.20;38.90
364;DHT22;173;48.718;9.274;2022-07-23T14:05:16;37.30;39.20
364;DHT22;173;48.718;9.274;2022-07-23T14:07:48;37.60;38.20
364;DHT22;173;48.718;9.274;2022-07-23T14:10:21;36.90;38.20
364;DHT22;173;48.718;9.274;2022-07-23T14:12:55;35.80;40.20
364;DHT22;173;48.718;9.274;2022-07-23T14:15:30;35.40;40.80
364;DHT22;173;48.718;9.274;2022-07-23T14:18:02;35.70;41.50
364;DHT22;173;48.718;9.274;2022-07-23T14:20:35;35.30;42.70
364;DHT22;173;48.718;9.274;2022-07-23T14:23:07;35.40;40.60
364;DHT22;173;48.718;9.274;2022-07-23T14:25:39;35.50;40.40
364;DHT22;173;48.718;9.274;2022-07-23T14:28:11;35.20;41.50
364;DHT22;173;48.718;9.274;2022-07-23T14:30:43;34.90;41.50
364;DHT22;173;48.718;9.274;2022-07-23T14:33:15;34.60;42.20
364;DHT22;173;48.718;9.274;2022-07-23T14:35:48;33.90;42.50
364;DHT22;173;48.718;9.274;2022-07-23T14:38:20;33.50;45.20
364;DHT22;173;48.718;9.274;2022-07-23T14:40:52;33.50;45.10
364;DHT22;173;48.718;9.274;2022-07-23T14:43:24;33.70;45.10
364;DHT22;173;48.718;9.274;2022-07-23T14:45:56;33.60;44.90
364;DHT22;173;48.718;9.274;2022-07-23T14:48:29;34.00;44.60
364;DHT22;173;48.718;9.274;2022-07-23T14:51:01;35.00;43.50
364;DHT22;173;48.718;9.274;2022-07-23T14:53:33;36.10;41.70
364;DHT22;173;48.718;9.274;2022-07-23T14:56:06;37.10;39.60
364;DHT22;173;48.718;9.274;2022-07-23T14:58:38;36.60;39.40
364;DHT22;173;48.718;9.274;2022-07-23T15:01:10;36.40;40.60
364;DHT22;173;48.718;9.274;2022-07-23T15:03:42;36.60;40.60
364;DHT22;173;48.718;9.274;2022-07-23T15:06:15;36.70;39.10
364;DHT22;173;48.718;9.274;2022-07-23T15:13:48;35.00;43.30
364;DHT22;173;48.718;9.274;2022-07-23T15:16:20;34.30;42.60
364;DHT22;173;48.718;9.274;2022-07-23T15:18:53;34.30;43.40
364;DHT22;173;48.718;9.274;2022-07-23T15:21:25;33.90;45.50
364;DHT22;173;48.718;9.274;2022-07-23T15:23:58;33.50;44.40
364;DHT22;173;48.718;9.274;2022-07-23T15:28:55;32.80;45.10
364;DHT22;173;48.718;9.274;2022-07-23T15:31:29;32.50;44.90
364;DHT22;173;48.718;9.274;2022-07-23T15:34:01;32.40;45.70
364;DHT22;173;48.718;9.274;2022-07-23T15:36:34;32.50;45.80
364;DHT22;173;48.718;9.274;2022-07-23T15:39:06;33.10;46.10
364;DHT22;173;48.718;9.274;2022-07-23T15:46:40;34.80;41.50
364;DHT22;173;48.718;9.274;2022-07-23T15:54:15;36.00;39.90
364;DHT22;173;48.718;9.274;2022-07-23T15:56:48;36.30;38.60
364;DHT22;173;48.718;9.274;2022-07-23T15:59:20;36.20;38.50
364;DHT22;173;48.718;9.274;2022-07-23T16:01:52;36.30;38.90
364;DHT22;173;48.718;9.274;2022-07-23T16:04:24;36.20;39.30
364;DHT22;173;48.718;9.274;2022-07-23T16:06:57;36.00;39.10
364;DHT22;173;48.718;9.274;2022-07-23T16:09:29;35.80;39.60
364;DHT22;173;48.718;9.274;2022-07-23T16:12:02;36.20;39.20
364;DHT22;173;48.718;9.274;2022-07-23T16:14:34;36.40;38.40
364;DHT22;173;48.718;9.274;2022-07-23T16:17:06;36.20;38.40
364;DHT22;173;48.718;9.274;2022-07-23T16:19:38;35.90;39.90
364;DHT22;173;48.718;9.274;2022-07-23T16:22:10;35.90;39.00
364;DHT22;173;48.718;9.274;2022-07-23T16:24:44;35.80;39.60
364;DHT22;173;48.718;9.274;2022-07-23T16:27:17;35.00;40.40
364;DHT22;173;48.718;9.274;2022-07-23T16:29:49;34.20;41.80
364;DHT22;173;48.718;9.274;2022-07-23T16:32:21;33.30;43.10
364;DHT22;173;48.718;9.274;2022-07-23T16:34:53;32.50;44.40
364;DHT22;173;48.718;9.274;2022-07-23T16:37:25;32.50;45.40
364;DHT22;173;48.718;9.274;2022-07-23T16:50:00;33.10;44.60
364;DHT22;173;48.718;9.274;2022-07-23T16:57:35;32.70;45.90
364;DHT22;173;48.718;9.274;2022-07-23T17:00:09;32.00;45.80
364;DHT22;173;48.718;9.274;2022-07-23T17:02:41;31.90;46.90
364;DHT22;173;48.718;9.274;2022-07-23T17:05:14;31.90;47.00
364;DHT22;173;48.718;9.274;2022-07-23T17:07:46;31.80;47.70
364;DHT22;173;48.718;9.274;2022-07-23T17:10:21;31.80;47.80
364;DHT22;173;48.718;9.274;2022-07-23T17:12:54;31.70;48.20
364;DHT22;173;48.718;9.274;2022-07-23T17:20:27;31.90;48.40
364;DHT22;173;48.718;9.274;2022-07-23T17:27:59;33.30;46.90
364;DHT22;173;48.718;9.274;2022-07-23T17:30:31;33.30;47.30
364;DHT22;173;48.718;9.274;2022-07-23T17:33:03;33.00;47.40
364;DHT22;173;48.718;9.274;2022-07-23T17:35:36;32.40;48.50
364;DHT22;173;48.718;9.274;2022-07-23T17:38:09;32.10;50.30
364;DHT22;173;48.718;9.274;2022-07-23T17:40:41;31.70;50.10
364;DHT22;173;48.718;9.274;2022-07-23T17:43:13;30.50;52.70
364;DHT22;173;48.718;9.274;2022-07-23T17:45:45;30.50;52.80
364;DHT22;173;48.718;9.274;2022-07-23T17:48:18;30.20;53.50
364;DHT22;173;48.718;9.274;2022-07-23T17:50:50;29.70;54.80
364;DHT22;173;48.718;9.274;2022-07-23T17:58:27;29.60;55.10
364;DHT22;173;48.718;9.274;2022-07-23T18:00:59;29.30;55.50
364;DHT22;173;48.718;9.274;2022-07-23T18:07:00;29.10;56.30
364;DHT22;173;48.718;9.274;2022-07-23T18:10:15;29.00;56.70
364;DHT22;173;48.718;9.274;2022-07-23T18:12:48;28.90;57.00
364;DHT22;173;48.718;9.274;2022-07-23T18:15:20;28.70;57.30
364;DHT22;173;48.718;9.274;2022-07-23T18:20:23;28.70;57.70
364;DHT22;173;48.718;9.274;2022-07-23T18:22:56;28.70;57.60
364;DHT22;173;48.718;9.274;2022-07-23T18:25:28;28.60;58.20
364;DHT22;173;48.718;9.274;2022-07-23T18:28:00;28.50;58.40
364;DHT22;173;48.718;9.274;2022-07-23T18:30:32;28.50;58.70
364;DHT22;173;48.718;9.274;2022-07-23T18:33:05;28.40;59.10
364;DHT22;173;48.718;9.274;2022-07-23T18:35:37;28.30;59.20
364;DHT22;173;48.718;9.274;2022-07-23T18:38:10;28.20;60.30
364;DHT22;173;48.718;9.274;2022-07-23T18:40:42;28.10;60.90
364;DHT22;173;48.718;9.274;2022-07-23T18:43:16;27.80;62.50
364;DHT22;173;48.718;9.274;2022-07-23T18:45:49;27.80;62.30
364;DHT22;173;48.718;9.274;2022-07-23T18:48:21;27.80;61.70
364;DHT22;173;48.718;9.274;2022-07-23T18:50:53;27.70;62.30
364;DHT22;173;48.718;9.274;2022-07-23T18:53:25;27.70;62.20
364;DHT22;173;48.718;9.274;2022-07-23T18:55:57;27.50;63.80
364;DHT22;173;48.718;9.274;2022-07-23T18:58:29;27.40;63.50
364;DHT22;173;48.718;9.274;2022-07-23T19:01:01;27.30;63.80
364;DHT22;173;48.718;9.274;2022-07-23T19:06:14;27.30;63.60
364;DHT22;173;48.718;9.274;2022-07-23T19:08:46;27.40;63.00
364;DHT22;173;48.718;9.274;2022-07-23T19:11:19;27.40;63.80
364;DHT22;173;48.718;9.274;2022-07-23T19:13:51;27.40;63.90
364;DHT22;173;48.718;9.274;2022-07-23T19:16:23;27.40;63.70
364;DHT22;173;48.718;9.274;2022-07-23T19:18:55;27.40;64.10
364;DHT22;173;48.718;9.274;2022-07-23T19:21:27;27.30;64.50
364;DHT22;173;48.718;9.274;2022-07-23T19:23:59;27.00;65.60
364;DHT22;173;48.718;9.274;2022-07-23T19:26:31;26.70;66.50
364;DHT22;173;48.718;9.274;2022-07-23T19:29:03;26.70;66.30
364;DHT22;173;48.718;9.274;2022-07-23T19:31:36;26.70;66.60
364;DHT22;173;48.718;9.274;2022-07-23T19:34:08;26.60;67.10
364;DHT22;173;48.718;9.274;2022-07-23T19:39:18;26.40;67.70
364;DHT22;173;48.718;9.274;2022-07-23T19:41:50;26.40;67.80
364;DHT22;173;48.718;9.274;2022-07-23T19:44:22;26.40;68.50
364;DHT22;173;48.718;9.274;2022-07-23T19:46:54;26.50;68.50
364;DHT22;173;48.718;9.274;2022-07-23T19:49:27;26.50;68.70
364;DHT22;173;48.718;9.274;2022-07-23T19:52:00;26.50;68.20
364;DHT22;173;48.718;9.274;2022-07-23T19:54:33;26.40;69.20
364;DHT22;173;48.718;9.274;2022-07-23T19:57:06;26.30;69.20
364;DHT22;173;48.718;9.274;2022-07-23T19:59:38;26.20;70.50
364;DHT22;173;48.718;9.274;2022-07-23T20:02:10;26.20;70.20
364;DHT22;173;48.718;9.274;2022-07-23T20:04:43;26.10;71.70